Time;durP1;ratioP1;P1;durP2;ratioP2;P2;SDS_P1;SDS_P2;PMS_P1;PMS_P2;Temp;Humidity;BMP_temperature;BMP_pressure;BME280_temperature;BME280_humidity;BME280_pressure;Samples;Min_cycle;Max_cycle;Signal;HPM_P1;HPM_P2
2021/03/11 00:00:23;;;;;;;3.73;3.07;;;19.50;41.80;;;;;;5082488;27;20475;-68
2021/03/11 00:02:50;;;;;;;5.40;3.33;;;19.50;41.70;;;;;;5088454;27;20492;-70
2021/03/11 00:05:16;;;;;;;3.77;3.43;;;19.50;41.70;;;;;;5084848;28;20464;-69
2021/03/11 00:07:42;;;;;;;5.20;4.80;;;19.50;41.90;;;;;;5085229;28;20824;-71
2021/03/11 00:10:10;;;;;;;3.30;3.10;;;19.50;41.90;;;;;;5085678;28;20757;-69
2021/03/11 00:12:37;;;;;;;3.90;3.60;;;19.50;42.00;;;;;;5082158;28;20485;-69
2021/03/11 00:15:05;;;;;;;4.23;3.30;;;19.50;42.00;;;;;;5087541;27;20477;-68
2021/03/11 00:17:31;;;;;;;3.67;3.40;;;19.50;42.70;;;;;;5076426;28;20492;-70
2021/03/11 00:19:58;;;;;;;5.40;3.60;;;19.50;42.00;;;;;;5069522;28;20488;-68
2021/03/11 00:22:25;;;;;;;4.40;3.80;;;19.40;42.00;;;;;;5064624;28;20473;-69
2021/03/11 00:24:51;;;;;;;2.97;2.77;;;19.40;42.00;;;;;;5073196;28;20488;-69
2021/03/11 00:27:17;;;;;;;4.03;3.73;;;19.40;42.10;;;;;;5072184;28;20543;-69
2021/03/11 00:29:43;;;;;;;3.40;3.20;;;19.40;42.10;;;;;;5080664;28;20488;-69
2021/03/11 00:32:09;;;;;;;3.17;2.87;;;19.40;42.00;;;;;;5074352;28;20488;-69
2021/03/11 00:34:36;;;;;;;3.70;3.43;;;19.40;42.10;;;;;;5081325;28;20489;-69
2021/03/11 00:37:03;;;;;;;3.40;3.10;;;19.40;42.00;;;;;;5076779;28;20496;-69
2021/03/11 00:39:29;;;;;;;4.23;3.87;;;19.40;42.10;;;;;;5075688;28;20550;-69
2021/03/11 00:42:04;;;;;;;3.87;3.57;;;19.50;42.20;;;;;;5060812;28;21159;-69
2021/03/11 00:44:30;;;;;;;4.33;3.23;;;19.50;42.20;;;;;;5059893;28;20481;-69
2021/03/11 00:46:56;;;;;;;3.50;3.20;;;19.50;42.10;;;;;;5073434;28;20484;-70
2021/03/11 00:49:23;;;;;;;3.70;3.50;;;19.50;42.20;;;;;;5070740;28;21199;-69
2021/03/11 00:51:49;;;;;;;3.50;3.30;;;19.40;42.30;;;;;;5070376;27;20481;-68
2021/03/11 00:54:16;;;;;;;3.43;3.17;;;19.50;42.30;;;;;;5102307;27;20477;-68
2021/03/11 00:56:42;;;;;;;3.50;3.30;;;19.40;42.30;;;;;;5078971;28;20479;-69
2021/03/11 00:59:09;;;;;;;3.63;3.33;;;19.40;42.30;;;;;;5072986;28;20484;-68
2021/03/11 01:01:35;;;;;;;3.80;3.50;;;19.40;42.30;;;;;;5080610;28;20476;-69
2021/03/11 01:04:01;;;;;;;3.67;3.47;;;19.50;42.30;;;;;;5071468;28;20472;-69
2021/03/11 01:06:27;;;;;;;4.07;3.13;;;19.50;42.20;;;;;;5075542;28;20489;-68
2021/03/11 01:08:53;;;;;;;2.93;2.73;;;19.50;42.10;;;;;;5077642;27;20831;-69
2021/03/11 01:11:20;;;;;;;5.00;3.27;;;19.60;42.10;;;;;;5082266;27;20504;-68
2021/03/11 01:13:47;;;;;;;3.97;3.63;;;19.50;42.00;;;;;;5082128;28;20513;-69
2021/03/11 01:16:13;;;;;;;3.37;3.10;;;19.50;42.20;;;;;;5077277;28;20479;-69
2021/03/11 01:18:39;;;;;;;3.50;3.30;;;19.50;42.30;;;;;;5080629;28;20489;-69
2021/03/11 01:21:05;;;;;;;3.27;2.97;;;19.50;42.30;;;;;;5076263;28;20488;-68
2021/03/11 01:23:32;;;;;;;3.30;3.00;;;19.50;42.30;;;;;;5073406;28;20485;-69
2021/03/11 01:25:58;;;;;;;3.13;2.93;;;19.40;42.40;;;;;;5072512;28;20484;-69
2021/03/11 01:28:25;;;;;;;3.13;2.93;;;19.40;42.30;;;;;;5085249;27;20482;-69
2021/03/11 01:30:51;;;;;;;3.53;3.33;;;19.40;42.40;;;;;;5086569;27;20473;-69
2021/03/11 01:33:17;;;;;;;3.20;2.97;;;19.40;42.30;;;;;;5075687;28;21111;-70
2021/03/11 01:35:43;;;;;;;3.03;2.73;;;19.40;42.40;;;;;;5074344;28;20492;-69
2021/03/11 01:38:10;;;;;;;3.20;2.90;;;19.40;42.40;;;;;;5075277;28;20487;-69
2021/03/11 01:40:36;;;;;;;2.50;2.40;;;19.40;42.40;;;;;;5079494;28;20477;-69
2021/03/11 01:43:02;;;;;;;4.63;3.07;;;19.50;42.40;;;;;;5077666;28;20481;-68
2021/03/11 01:45:29;;;;;;;3.20;2.87;;;19.50;42.40;;;;;;5082899;27;21369;-68
2021/03/11 01:47:55;;;;;;;4.10;2.80;;;19.50;42.30;;;;;;5074701;28;20480;-68
2021/03/11 01:50:22;;;;;;;3.27;3.03;;;19.50;42.40;;;;;;5079060;28;20863;-69
2021/03/11 01:52:48;;;;;;;2.33;2.13;;;19.50;42.40;;;;;;5070641;28;20489;-69
2021/03/11 01:55:14;;;;;;;4.87;2.50;;;19.50;42.50;;;;;;5066121;28;20504;-68
2021/03/11 01:57:41;;;;;;;3.03;2.83;;;19.50;42.50;;;;;;5067453;28;20866;-69
2021/03/11 02:00:10;;;;;;;3.60;2.57;;;19.40;42.40;;;;;;5073983;28;20477;-69
2021/03/11 02:02:38;;;;;;;2.20;2.10;;;19.50;42.40;;;;;;5074361;28;20488;-70
2021/03/11 02:05:05;;;;;;;3.23;2.93;;;19.50;42.50;;;;;;5078651;28;21109;-69
2021/03/11 02:07:31;;;;;;;4.27;3.10;;;19.40;42.40;;;;;;5076111;28;21616;-70
2021/03/11 02:09:57;;;;;;;2.57;2.43;;;19.50;42.40;;;;;;5072593;27;21170;-67
2021/03/11 02:12:26;;;;;;;3.37;3.07;;;19.50;42.40;;;;;;5102368;27;20482;-69
2021/03/11 02:14:59;;;;;;;3.23;3.03;;;19.40;42.40;;;;;;5076725;28;20477;-68
2021/03/11 02:17:27;;;;;;;2.67;2.53;;;19.40;42.30;;;;;;5074923;28;20524;-69
2021/03/11 02:20:11;;;;;;;2.70;2.50;;;19.40;42.30;;;;;;5076201;28;20493;-69
2021/03/11 02:22:45;;;;;;;3.20;3.00;;;19.40;42.30;;;;;;5069291;28;20488;-69
2021/03/11 02:25:14;;;;;;;2.93;2.70;;;19.40;42.40;;;;;;5068855;28;20485;-69
2021/03/11 02:27:49;;;;;;;2.97;2.77;;;19.40;42.40;;;;;;5065966;27;20497;-69
2021/03/11 02:30:16;;;;;;;2.77;2.60;;;19.50;42.40;;;;;;5091287;27;20490;-68
2021/03/11 02:32:42;;;;;;;2.33;2.23;;;19.50;42.50;;;;;;5076203;28;20484;-68
2021/03/11 02:35:08;;;;;;;2.63;2.53;;;19.50;42.30;;;;;;5079064;28;20542;-68
2021/03/11 02:37:39;;;;;;;2.37;2.27;;;19.50;42.20;;;;;;5072360;28;20480;-69
2021/03/11 02:40:08;;;;;;;2.70;2.50;;;19.50;42.20;;;;;;5075600;27;20562;-69
2021/03/11 02:42:34;;;;;;;2.67;2.47;;;19.50;42.20;;;;;;5079530;27;20476;-70
2021/03/11 02:45:00;;;;;;;1.87;1.77;;;19.50;42.30;;;;;;5074747;28;20473;-69
2021/03/11 02:47:27;;;;;;;2.80;2.63;;;19.50;42.40;;;;;;5070266;27;21027;-69
2021/03/11 02:49:54;;;;;;;2.07;1.97;;;19.50;42.40;;;;;;5097003;27;20480;-68
2021/03/11 02:52:20;;;;;;;2.20;2.10;;;19.50;42.40;;;;;;5071229;28;20478;-69
2021/03/11 02:54:46;;;;;;;2.43;2.33;;;19.50;42.40;;;;;;5077707;27;20483;-68
2021/03/11 02:57:13;;;;;;;1.87;1.77;;;19.50;42.50;;;;;;5083878;27;20482;-69
2021/03/11 02:59:39;;;;;;;2.80;2.70;;;19.50;42.50;;;;;;5075000;28;20487;-68
2021/03/11 03:02:06;;;;;;;2.70;2.50;;;19.50;42.50;;;;;;5057938;27;20488;-68
2021/03/11 03:04:33;;;;;;;2.57;2.37;;;19.50;42.40;;;;;;5105443;27;21083;-69
2021/03/11 03:06:59;;;;;;;2.37;2.10;;;19.50;42.40;;;;;;5072606;28;20475;-69
2021/03/11 03:09:26;;;;;;;1.90;1.80;;;19.50;42.40;;;;;;5075442;28;20476;-69
2021/03/11 03:11:55;;;;;;;2.70;2.50;;;19.50;42.40;;;;;;5080729;28;20469;-69
2021/03/11 03:14:21;;;;;;;2.57;2.37;;;19.50;42.40;;;;;;5079050;27;20511;-70
2021/03/11 03:16:47;;;;;;;3.50;2.07;;;19.50;42.50;;;;;;5078620;28;21207;-69
2021/03/11 03:19:13;;;;;;;2.20;2.10;;;19.50;42.50;;;;;;5071908;28;20488;-69
2021/03/11 03:21:42;;;;;;;2.10;2.00;;;19.50;42.50;;;;;;5075217;28;20487;-69
2021/03/11 03:24:10;;;;;;;2.00;1.90;;;19.50;42.50;;;;;;5071825;28;20488;-68
2021/03/11 03:26:36;;;;;;;2.60;2.40;;;19.50;42.50;;;;;;5071038;28;20485;-69
2021/03/11 03:29:03;;;;;;;1.73;1.63;;;19.50;42.50;;;;;;5070334;28;20470;-69
2021/03/11 03:31:29;;;;;;;2.20;2.10;;;19.50;42.60;;;;;;5076767;28;20480;-69
2021/03/11 03:33:55;;;;;;;2.33;2.23;;;19.50;42.50;;;;;;5075177;27;20491;-69
2021/03/11 03:36:22;;;;;;;2.30;2.20;;;19.50;42.50;;;;;;5099048;27;20564;-68
2021/03/11 03:38:49;;;;;;;2.17;2.07;;;19.50;42.50;;;;;;5092351;27;20595;-69
2021/03/11 03:41:15;;;;;;;2.50;2.40;;;19.50;42.50;;;;;;5075361;28;20538;-68
2021/03/11 03:43:41;;;;;;;2.33;2.13;;;19.40;42.40;;;;;;5075360;28;20481;-69
2021/03/11 03:46:09;;;;;;;1.30;1.20;;;19.50;42.50;;;;;;5073485;28;20473;-70
2021/03/11 03:48:38;;;;;;;1.90;1.80;;;19.50;42.50;;;;;;5071369;27;20476;-69
2021/03/11 03:51:05;;;;;;;2.10;2.00;;;19.50;42.60;;;;;;5081515;28;20503;-70
2021/03/11 03:53:34;;;;;;;2.00;1.90;;;19.50;42.60;;;;;;5074567;28;20894;-69
2021/03/11 03:56:02;;;;;;;1.90;1.80;;;19.50;42.60;;;;;;5076730;28;20472;-69
2021/03/11 03:58:28;;;;;;;1.67;1.57;;;19.50;42.60;;;;;;5087041;28;20477;-70
2021/03/11 04:00:55;;;;;;;2.03;1.93;;;19.50;42.60;;;;;;5085442;28;20477;-69
2021/03/11 04:03:21;;;;;;;2.73;1.83;;;19.50;42.60;;;;;;5077166;27;20482;-68
2021/03/11 04:05:47;;;;;;;1.93;1.83;;;19.50;42.60;;;;;;5078775;28;20512;-68
2021/03/11 04:08:14;;;;;;;1.70;1.60;;;19.50;42.60;;;;;;5084529;27;20488;-69
2021/03/11 04:10:41;;;;;;;2.13;2.03;;;19.40;42.70;;;;;;5079546;28;20514;-69
2021/03/11 04:13:08;;;;;;;2.50;2.17;;;19.40;42.90;;;;;;5080935;27;20591;-69
2021/03/11 04:15:34;;;;;;;2.10;2.00;;;19.40;42.80;;;;;;5075875;28;20973;-68
2021/03/11 04:18:01;;;;;;;1.93;1.83;;;19.50;42.80;;;;;;5081346;27;20489;-69
2021/03/11 04:20:27;;;;;;;2.00;1.90;;;19.60;42.70;;;;;;5081807;27;21011;-70
2021/03/11 04:22:53;;;;;;;2.13;1.93;;;19.60;42.50;;;;;;5078528;28;20480;-69
2021/03/11 04:25:20;;;;;;;1.93;1.83;;;19.70;42.60;;;;;;5081614;28;20484;-69
2021/03/11 04:27:46;;;;;;;1.60;1.50;;;19.70;42.50;;;;;;5084806;27;20489;-69
2021/03/11 04:30:14;;;;;;;1.80;1.70;;;19.70;41.70;;;;;;5079002;27;20546;-69
2021/03/11 04:32:40;;;;;;;2.47;2.27;;;19.70;42.40;;;;;;5083156;27;20539;-69
2021/03/11 04:35:08;;;;;;;1.70;1.60;;;19.70;42.40;;;;;;5081132;27;20496;-69
2021/03/11 04:37:36;;;;;;;2.37;2.17;;;19.70;42.40;;;;;;5095909;27;20479;-68
2021/03/11 04:40:02;;;;;;;2.00;1.90;;;19.80;42.40;;;;;;5070611;27;20517;-69
2021/03/11 04:42:29;;;;;;;1.70;1.60;;;19.80;42.50;;;;;;5077322;27;20888;-68
2021/03/11 04:44:55;;;;;;;1.90;1.80;;;19.80;42.50;;;;;;5072298;28;20480;-69
2021/03/11 04:47:22;;;;;;;2.10;2.00;;;19.80;42.40;;;;;;5075329;28;20477;-69
2021/03/11 04:49:48;;;;;;;2.43;2.23;;;19.80;42.50;;;;;;5074322;27;20584;-68
2021/03/11 04:52:14;;;;;;;1.93;1.80;;;19.70;42.50;;;;;;5073436;28;21634;-69
2021/03/11 04:54:40;;;;;;;1.80;1.70;;;19.70;42.50;;;;;;5076686;27;20484;-69
2021/03/11 04:57:07;;;;;;;2.93;1.70;;;19.70;42.60;;;;;;5073627;27;20480;-68
2021/03/11 04:59:33;;;;;;;1.90;1.80;;;19.70;42.40;;;;;;5072284;27;20488;-68
2021/03/11 05:02:00;;;;;;;2.10;2.00;;;19.60;42.50;;;;;;5061324;28;20864;-69
2021/03/11 05:04:27;;;;;;;2.43;2.23;;;19.60;43.00;;;;;;5072708;27;20492;-69
2021/03/11 05:06:54;;;;;;;2.00;1.90;;;19.60;42.60;;;;;;5073631;28;21134;-69
2021/03/11 05:09:20;;;;;;;1.70;1.60;;;19.70;42.70;;;;;;5069095;27;20488;-69
2021/03/11 05:11:46;;;;;;;1.77;1.67;;;19.70;42.60;;;;;;5079858;27;20472;-69
2021/03/11 05:14:12;;;;;;;1.70;1.60;;;19.70;43.00;;;;;;5073490;27;20495;-69
2021/03/11 05:16:38;;;;;;;1.73;1.63;;;19.70;42.70;;;;;;5082580;28;20484;-69
2021/03/11 05:19:05;;;;;;;1.80;1.70;;;19.70;42.80;;;;;;5068881;28;20488;-69
2021/03/11 05:21:32;;;;;;;1.40;1.30;;;19.70;42.80;;;;;;5074359;28;20618;-69
2021/03/11 05:23:59;;;;;;;1.40;1.40;;;19.70;42.80;;;;;;5070327;28;20478;-68
2021/03/11 05:26:25;;;;;;;2.00;1.90;;;19.70;42.80;;;;;;5066070;27;20479;-68
2021/03/11 05:28:51;;;;;;;1.60;1.50;;;19.80;42.80;;;;;;5091704;27;20557;-69
2021/03/11 05:31:17;;;;;;;1.33;1.33;;;19.70;42.70;;;;;;5085367;27;20475;-69
2021/03/11 05:33:43;;;;;;;1.40;1.40;;;19.70;42.60;;;;;;5080615;27;20864;-69
2021/03/11 05:36:10;;;;;;;1.60;1.50;;;19.80;42.70;;;;;;5069976;28;20484;-69
2021/03/11 05:38:37;;;;;;;1.90;1.80;;;19.80;42.70;;;;;;5064736;28;20481;-69
2021/03/11 05:41:03;;;;;;;1.80;1.70;;;19.80;42.70;;;;;;5064972;27;20494;-69
2021/03/11 05:43:29;;;;;;;1.50;1.50;;;19.80;42.70;;;;;;5081313;27;20477;-69
2021/03/11 05:45:56;;;;;;;1.30;1.20;;;19.80;42.70;;;;;;5068689;28;20847;-69
2021/03/11 05:48:23;;;;;;;1.50;1.40;;;19.80;42.80;;;;;;5072841;27;20487;-69
2021/03/11 05:50:51;;;;;;;1.13;1.13;;;19.80;42.70;;;;;;5080953;27;20542;-70
2021/03/11 05:53:17;;;;;;;1.40;1.30;;;19.80;42.70;;;;;;5066986;28;20485;-69
2021/03/11 05:55:44;;;;;;;1.93;1.83;;;19.80;42.70;;;;;;5090132;27;20504;-69
2021/03/11 05:58:10;;;;;;;1.53;1.53;;;19.80;42.80;;;;;;5065864;28;20494;-69
2021/03/11 06:00:37;;;;;;;1.90;1.80;;;19.80;42.80;;;;;;5071250;28;20473;-69
2021/03/11 06:03:03;;;;;;;1.27;1.17;;;19.80;42.80;;;;;;5070895;27;20527;-68
2021/03/11 06:05:29;;;;;;;1.10;1.00;;;19.80;42.70;;;;;;5096579;27;20480;-69
2021/03/11 06:07:55;;;;;;;1.10;1.00;;;19.80;42.90;;;;;;5065290;28;20487;-69
2021/03/11 06:10:22;;;;;;;1.57;1.47;;;19.80;42.80;;;;;;5067269;28;20500;-70
2021/03/11 06:12:50;;;;;;;1.23;1.23;;;19.80;42.90;;;;;;5070350;28;20500;-69
2021/03/11 06:15:21;;;;;;;1.33;1.33;;;19.80;42.90;;;;;;5088459;27;20549;-69
2021/03/11 06:17:47;;;;;;;1.43;1.43;;;19.80;42.90;;;;;;5074136;27;20534;-69
2021/03/11 06:20:13;;;;;;;1.20;1.20;;;19.80;42.80;;;;;;5067407;28;20484;-69
2021/03/11 06:22:39;;;;;;;2.00;1.33;;;19.70;42.80;;;;;;5074209;28;20477;-69
2021/03/11 06:25:07;;;;;;;1.73;0.90;;;19.80;43.70;;;;;;5064258;28;20516;-69
2021/03/11 06:27:33;;;;;;;2.23;1.53;;;19.70;43.50;;;;;;5072146;28;20477;-70
2021/03/11 06:30:00;;;;;;;1.70;1.47;;;19.80;43.10;;;;;;5070236;27;20484;-69
2021/03/11 06:32:26;;;;;;;1.77;1.67;;;19.80;43.20;;;;;;5077371;28;20479;-69
2021/03/11 06:34:52;;;;;;;1.00;1.00;;;19.70;43.00;;;;;;5073060;28;20488;-68
2021/03/11 06:37:37;;;;;;;1.27;1.27;;;19.70;43.10;;;;;;5074732;28;20481;-69
2021/03/11 06:40:15;;;;;;;1.50;1.50;;;19.70;43.10;;;;;;5043402;28;20483;-69
2021/03/11 06:42:41;;;;;;;1.33;1.23;;;19.80;43.20;;;;;;5087341;27;20475;-69
2021/03/11 06:45:27;;;;;;;1.00;1.00;;;19.80;43.10;;;;;;5067959;28;20488;-70
2021/03/11 06:47:54;;;;;;;1.00;1.00;;;19.80;42.90;;;;;;5067243;28;20484;-70
2021/03/11 06:50:23;;;;;;;1.53;1.50;;;19.90;43.00;;;;;;5067357;28;20480;-68
2021/03/11 06:53:03;;;;;;;1.23;1.23;;;19.80;42.90;;;;;;5067403;28;20484;-68
2021/03/11 06:55:29;;;;;;;1.37;1.13;;;19.80;43.00;;;;;;5088955;27;20621;-68
2021/03/11 06:57:55;;;;;;;1.20;1.10;;;19.80;43.10;;;;;;5070279;28;20489;-67
2021/03/11 07:00:22;;;;;;;1.30;1.20;;;19.70;43.20;;;;;;5067352;28;21426;-69
2021/03/11 07:02:50;;;;;;;1.17;1.17;;;19.70;43.30;;;;;;5069591;28;20559;-69
2021/03/11 07:05:17;;;;;;;1.23;1.23;;;19.70;43.40;;;;;;5073122;27;20571;-69
2021/03/11 07:07:43;;;;;;;1.27;1.27;;;19.70;43.40;;;;;;5082950;27;20481;-68
2021/03/11 07:10:23;;;;;;;0.80;0.80;;;19.70;43.50;;;;;;5082129;27;20806;-69
2021/03/11 07:12:50;;;;;;;0.97;0.97;;;19.70;43.40;;;;;;5076668;27;20492;-68
2021/03/11 07:15:17;;;;;;;1.27;1.17;;;19.70;43.30;;;;;;5068785;28;20488;-69
2021/03/11 07:17:44;;;;;;;1.47;1.20;;;19.80;43.30;;;;;;5070146;28;20510;-68
2021/03/11 07:20:12;;;;;;;1.13;1.13;;;19.80;43.30;;;;;;5066518;28;20488;-68
2021/03/11 07:22:39;;;;;;;1.53;0.80;;;19.80;43.30;;;;;;5076489;27;20566;-67
2021/03/11 07:25:24;;;;;;;0.80;0.80;;;19.80;43.40;;;;;;5083329;27;21009;-68
2021/03/11 07:27:50;;;;;;;0.70;0.70;;;19.80;43.30;;;;;;5078417;27;20917;-68
2021/03/11 07:30:17;;;;;;;0.93;0.83;;;19.80;43.40;;;;;;5080356;27;20485;-69
2021/03/11 07:32:43;;;;;;;0.97;0.97;;;19.80;43.40;;;;;;5066680;28;20484;-69
2021/03/11 07:35:16;;;;;;;1.10;1.10;;;19.80;43.50;;;;;;5070290;28;20489;-69
2021/03/11 07:37:42;;;;;;;0.80;0.80;;;19.80;43.50;;;;;;5069030;28;20485;-68
2021/03/11 07:40:09;;;;;;;0.80;0.80;;;19.70;43.40;;;;;;5081889;28;20485;-68
2021/03/11 07:42:35;;;;;;;0.77;0.77;;;19.70;43.50;;;;;;5087517;28;20473;-69
2021/03/11 07:45:01;;;;;;;0.90;0.90;;;19.70;43.40;;;;;;5082589;28;20472;-68
2021/03/11 07:47:28;;;;;;;1.33;1.00;;;19.70;43.50;;;;;;5089602;27;21921;-69
2021/03/11 07:49:54;;;;;;;0.70;0.70;;;19.70;43.50;;;;;;5069356;28;20490;-69
2021/03/11 07:52:21;;;;;;;0.87;0.87;;;19.70;43.60;;;;;;5069943;28;20495;-69
2021/03/11 07:54:47;;;;;;;0.93;0.93;;;19.70;43.70;;;;;;5068393;27;20475;-69
2021/03/11 07:57:13;;;;;;;1.40;0.90;;;19.70;43.70;;;;;;5085928;28;20525;-69
2021/03/11 07:59:43;;;;;;;0.93;0.93;;;19.70;43.70;;;;;;5092011;27;20508;-69
2021/03/11 08:02:10;;;;;;;0.97;0.97;;;19.60;43.70;;;;;;5066879;28;20501;-69
2021/03/11 08:04:41;;;;;;;0.97;0.97;;;19.70;43.70;;;;;;5071414;28;20475;-69
2021/03/11 08:07:18;;;;;;;1.00;1.00;;;19.60;43.60;;;;;;5062493;28;20481;-69
2021/03/11 08:09:45;;;;;;;1.00;1.00;;;19.70;43.70;;;;;;5069474;28;20472;-69
2021/03/11 08:12:44;;;;;;;1.10;1.00;;;19.70;43.70;;;;;;5068180;28;20508;-68
2021/03/11 08:15:32;;;;;;;0.90;0.90;;;19.70;43.60;;;;;;5067710;28;20902;-69
2021/03/11 08:17:58;;;;;;;1.43;0.90;;;19.70;43.60;;;;;;5068257;28;20477;-69
2021/03/11 08:20:38;;;;;;;0.90;0.90;;;19.70;43.50;;;;;;5068500;28;20479;-69
2021/03/11 08:23:06;;;;;;;0.70;0.70;;;19.70;43.60;;;;;;5060180;28;20507;-69
2021/03/11 08:25:43;;;;;;;0.77;0.77;;;19.70;43.70;;;;;;5071142;28;20501;-68
2021/03/11 08:28:46;;;;;;;0.70;0.70;;;19.70;43.80;;;;;;5067867;28;20947;-69
2021/03/11 08:31:12;;;;;;;0.90;0.90;;;19.70;43.90;;;;;;5072420;27;20478;-68
2021/03/11 08:33:46;;;;;;;0.87;0.87;;;19.60;43.80;;;;;;5085714;28;20485;-69
2021/03/11 08:36:36;;;;;;;0.90;0.90;;;19.60;43.80;;;;;;5067775;28;20476;-69
2021/03/11 08:39:03;;;;;;;0.90;0.90;;;19.60;43.90;;;;;;5082916;27;21018;-68
2021/03/11 08:41:34;;;;;;;1.13;1.03;;;19.70;43.90;;;;;;5078856;28;20473;-69
2021/03/11 08:44:02;;;;;;;0.57;0.57;;;19.70;43.80;;;;;;5068817;28;20497;-69
2021/03/11 08:46:51;;;;;;;1.20;1.20;;;19.70;43.80;;;;;;5069971;28;20474;-69
2021/03/11 08:49:42;;;;;;;0.80;0.80;;;19.70;43.90;;;;;;5069829;28;21381;-69
2021/03/11 08:52:12;;;;;;;1.00;1.00;;;19.70;43.90;;;;;;5053575;28;20480;-69
2021/03/11 08:54:38;;;;;;;1.20;1.13;;;19.70;43.80;;;;;;5093971;27;20467;-69
2021/03/11 08:57:05;;;;;;;0.60;0.60;;;19.70;43.90;;;;;;5094207;27;20479;-68
2021/03/11 08:59:45;;;;;;;0.90;0.87;;;19.70;43.90;;;;;;5072819;27;20533;-69
2021/03/11 09:02:31;;;;;;;0.80;0.80;;;19.70;44.00;;;;;;5073500;28;20507;-69
2021/03/11 09:04:57;;;;;;;0.80;0.80;;;19.70;44.00;;;;;;5071452;28;20833;-69
2021/03/11 09:07:32;;;;;;;0.80;0.80;;;19.70;44.10;;;;;;5080376;27;20621;-69
2021/03/11 09:09:58;;;;;;;0.87;0.87;;;19.60;43.90;;;;;;5079458;27;21698;-69
2021/03/11 09:12:32;;;;;;;1.43;1.33;;;19.60;43.90;;;;;;5072895;28;20480;-69
2021/03/11 09:14:59;;;;;;;0.90;0.77;;;19.70;44.00;;;;;;5069835;28;21159;-69
2021/03/11 09:17:25;;;;;;;0.90;0.90;;;19.70;44.10;;;;;;5072497;28;20493;-69
2021/03/11 09:19:53;;;;;;;0.90;0.90;;;19.70;44.10;;;;;;5071091;28;20481;-69
2021/03/11 09:22:24;;;;;;;0.93;0.93;;;19.70;44.10;;;;;;5072535;28;20476;-70
2021/03/11 09:25:13;;;;;;;0.90;0.83;;;19.70;44.10;;;;;;5074860;28;20480;-69
2021/03/11 09:27:41;;;;;;;0.70;0.70;;;19.70;44.00;;;;;;5070507;27;20564;-71
2021/03/11 09:30:09;;;;;;;0.73;0.73;;;19.70;43.90;;;;;;5086318;27;20470;-69
2021/03/11 09:32:36;;;;;;;0.80;0.80;;;19.70;44.00;;;;;;5060208;28;20465;-70
2021/03/11 09:35:03;;;;;;;0.93;0.93;;;19.60;44.10;;;;;;5072405;28;20470;-69
2021/03/11 09:37:47;;;;;;;1.00;1.00;;;19.60;44.20;;;;;;5071929;28;20542;-70
2021/03/11 09:40:17;;;;;;;0.80;0.80;;;19.60;44.10;;;;;;5073677;28;20540;-69
2021/03/11 09:43:10;;;;;;;1.17;1.17;;;19.60;44.20;;;;;;5073750;28;20568;-69
2021/03/11 09:45:38;;;;;;;1.17;0.90;;;19.60;44.30;;;;;;5035655;28;20469;-69
2021/03/11 09:48:06;;;;;;;2.87;0.80;;;19.60;44.40;;;;;;5060365;28;20481;-69
2021/03/11 09:50:32;;;;;;;0.70;0.70;;;19.60;44.40;;;;;;5093684;27;20670;-69
2021/03/11 09:53:00;;;;;;;1.17;0.90;;;19.60;44.40;;;;;;5091550;27;21013;-68
2021/03/11 09:55:26;;;;;;;0.73;0.73;;;19.60;44.40;;;;;;5064780;27;20474;-69
2021/03/11 09:57:52;;;;;;;1.00;1.00;;;19.60;44.40;;;;;;5096379;27;20541;-69
2021/03/11 10:00:20;;;;;;;0.83;0.83;;;19.60;44.60;;;;;;5072870;28;20511;-70
2021/03/11 10:02:46;;;;;;;1.00;1.00;;;19.60;44.60;;;;;;5070638;28;20473;-70
2021/03/11 10:05:13;;;;;;;1.20;1.20;;;19.60;44.60;;;;;;5073063;28;20481;-69
2021/03/11 10:07:39;;;;;;;1.00;0.87;;;19.70;44.50;;;;;;5073107;28;20476;-70
2021/03/11 10:10:11;;;;;;;1.23;1.13;;;19.70;44.40;;;;;;5071602;28;20489;-70
2021/03/11 10:12:37;;;;;;;1.90;0.93;;;19.70;44.40;;;;;;5070497;28;20475;-70
2021/03/11 10:15:07;;;;;;;1.70;1.00;;;19.80;44.50;;;;;;5071105;28;20897;-69
2021/03/11 10:17:34;;;;;;;0.70;0.70;;;19.80;44.60;;;;;;5063987;28;20480;-70
2021/03/11 10:20:15;;;;;;;0.70;0.70;;;19.80;44.60;;;;;;5083371;28;20487;-70
2021/03/11 10:22:41;;;;;;;2.67;1.20;;;19.80;44.60;;;;;;5071201;28;20475;-70
2021/03/11 10:25:14;;;;;;;1.30;1.20;;;19.80;44.60;;;;;;5069668;27;20491;-70
2021/03/11 10:27:43;;;;;;;1.10;1.10;;;19.80;44.60;;;;;;5083326;27;20530;-70
2021/03/11 10:30:10;;;;;;;1.03;0.90;;;19.80;44.50;;;;;;5069937;28;20477;-70
2021/03/11 10:32:38;;;;;;;0.80;0.80;;;19.80;44.50;;;;;;5071766;28;20493;-70
2021/03/11 10:35:06;;;;;;;0.70;0.70;;;19.80;44.50;;;;;;5061360;28;20469;-69
2021/03/11 10:37:33;;;;;;;0.90;0.90;;;19.80;44.60;;;;;;5068503;28;20482;-70
2021/03/11 10:40:00;;;;;;;0.93;0.87;;;19.80;44.50;;;;;;5070409;28;20490;-69
2021/03/11 10:42:39;;;;;;;3.47;1.17;;;19.90;44.50;;;;;;5071689;28;21023;-70
2021/03/11 10:45:06;;;;;;;1.57;0.70;;;19.90;44.40;;;;;;5068692;28;20472;-69
2021/03/11 10:47:32;;;;;;;1.27;0.97;;;19.90;44.40;;;;;;5071756;28;22495;-69
2021/03/11 10:49:59;;;;;;;0.93;0.93;;;20.00;44.40;;;;;;5070126;28;20563;-70
2021/03/11 10:52:26;;;;;;;0.80;0.80;;;20.00;44.30;;;;;;5069108;28;20500;-69
2021/03/11 10:54:52;;;;;;;0.87;0.87;;;20.00;44.20;;;;;;5071738;28;20986;-69
2021/03/11 10:57:19;;;;;;;1.10;1.10;;;20.00;44.30;;;;;;5060961;27;20486;-70
2021/03/11 10:59:53;;;;;;;1.20;1.20;;;20.00;44.30;;;;;;5097855;27;20494;-70
2021/03/11 11:02:20;;;;;;;0.80;0.80;;;20.00;44.40;;;;;;5069210;28;20472;-69
2021/03/11 11:04:46;;;;;;;1.13;1.03;;;20.00;44.60;;;;;;5070946;28;20485;-70
2021/03/11 11:07:13;;;;;;;0.97;0.73;;;19.90;44.50;;;;;;5069513;28;20492;-70
2021/03/11 11:09:40;;;;;;;1.10;1.10;;;19.90;44.50;;;;;;5071113;28;20476;-70
2021/03/11 11:12:07;;;;;;;1.00;1.00;;;20.00;44.60;;;;;;5058233;28;20470;-69
2021/03/11 11:14:34;;;;;;;1.70;1.30;;;20.00;44.60;;;;;;5068674;28;20477;-70
2021/03/11 11:17:00;;;;;;;1.33;1.23;;;20.00;44.50;;;;;;5082941;28;20470;-70
2021/03/11 11:19:26;;;;;;;1.23;1.20;;;20.10;44.60;;;;;;5085598;28;20512;-69
2021/03/11 11:21:52;;;;;;;1.30;1.03;;;20.10;44.60;;;;;;5080097;28;21056;-68
2021/03/11 11:24:19;;;;;;;0.83;0.83;;;20.10;44.70;;;;;;5072859;28;20489;-69
2021/03/11 11:26:45;;;;;;;1.13;0.80;;;20.00;44.70;;;;;;5071192;28;20477;-69
2021/03/11 11:29:12;;;;;;;0.90;0.90;;;20.00;44.70;;;;;;5071770;28;20473;-69
2021/03/11 11:31:38;;;;;;;1.30;0.73;;;20.00;44.70;;;;;;5071252;28;20473;-69
2021/03/11 11:34:05;;;;;;;1.43;0.83;;;20.00;44.70;;;;;;5071744;28;20489;-69
2021/03/11 11:36:31;;;;;;;1.10;1.10;;;20.00;44.90;;;;;;5071408;28;21399;-69
2021/03/11 11:38:57;;;;;;;1.00;1.00;;;20.00;44.70;;;;;;5069791;28;20545;-70
2021/03/11 11:41:24;;;;;;;2.20;1.10;;;20.00;44.70;;;;;;5066210;28;20996;-69
2021/03/11 11:43:50;;;;;;;1.70;1.10;;;20.00;44.70;;;;;;5067369;27;20487;-69
2021/03/11 11:46:16;;;;;;;1.40;0.90;;;20.00;44.80;;;;;;5081925;27;20484;-69
2021/03/11 11:48:43;;;;;;;1.10;0.97;;;20.00;44.70;;;;;;5097410;27;20469;-69
2021/03/11 11:51:09;;;;;;;0.93;0.90;;;20.00;44.70;;;;;;5070108;28;20480;-69
2021/03/11 11:53:35;;;;;;;1.17;0.93;;;20.00;44.70;;;;;;5070723;28;20476;-69
2021/03/11 11:56:01;;;;;;;2.30;1.10;;;20.00;44.60;;;;;;5081309;27;20491;-69
2021/03/11 11:58:28;;;;;;;0.83;0.83;;;20.00;44.70;;;;;;5079593;27;20892;-68
2021/03/11 12:00:54;;;;;;;0.77;0.77;;;20.00;44.60;;;;;;5068491;28;20485;-69
2021/03/11 12:03:21;;;;;;;0.80;0.80;;;20.00;44.50;;;;;;5074577;28;20483;-69
2021/03/11 12:05:47;;;;;;;0.87;0.87;;;20.00;44.50;;;;;;5070191;28;20481;-69
2021/03/11 12:08:13;;;;;;;4.43;0.97;;;20.00;44.50;;;;;;5069598;28;20539;-70
2021/03/11 12:10:39;;;;;;;2.33;0.90;;;20.00;44.40;;;;;;5068528;28;20561;-70
2021/03/11 12:13:07;;;;;;;2.20;0.93;;;20.00;44.40;;;;;;5070509;28;20973;-70
2021/03/11 12:15:34;;;;;;;2.23;0.60;;;20.00;44.40;;;;;;5089047;28;20533;-72
2021/03/11 12:18:00;;;;;;;2.43;1.10;;;20.00;44.40;;;;;;5069184;28;20488;-70
2021/03/11 12:20:26;;;;;;;1.17;0.77;;;20.00;44.30;;;;;;5055691;28;20489;-70
2021/03/11 12:22:53;;;;;;;1.47;1.13;;;19.90;44.20;;;;;;5091018;27;20510;-70
2021/03/11 12:25:20;;;;;;;2.30;1.03;;;19.90;44.20;;;;;;5072322;28;20488;-69
2021/03/11 12:27:46;;;;;;;1.37;0.90;;;19.90;44.20;;;;;;5072613;28;20481;-69
2021/03/11 12:30:13;;;;;;;1.37;0.90;;;19.90;44.10;;;;;;5073540;28;21386;-71
2021/03/11 12:32:40;;;;;;;1.47;1.00;;;19.90;44.20;;;;;;5072976;28;20991;-70
2021/03/11 12:35:07;;;;;;;1.80;0.90;;;19.90;44.20;;;;;;5072183;28;20984;-71
2021/03/11 12:37:33;;;;;;;2.20;1.10;;;19.90;44.30;;;;;;5072199;28;20496;-70
2021/03/11 12:39:59;;;;;;;3.60;0.90;;;19.90;44.30;;;;;;5070462;28;20496;-70
2021/03/11 12:42:26;;;;;;;4.57;0.97;;;19.90;44.40;;;;;;5073678;28;20489;-70
2021/03/11 12:44:52;;;;;;;2.20;1.40;;;19.90;44.30;;;;;;5083394;27;20478;-69
2021/03/11 12:47:18;;;;;;;0.97;0.87;;;19.90;44.50;;;;;;5087570;27;20480;-69
2021/03/11 12:49:45;;;;;;;1.83;1.20;;;20.00;44.60;;;;;;5096055;27;20504;-70
2021/03/11 12:52:11;;;;;;;1.50;0.73;;;20.00;44.60;;;;;;5073200;28;20477;-70